Time;durP1;ratioP1;P1;durP2;ratioP2;P2;SDS_P1;SDS_P2;PMS_P1;PMS_P2;Temp;Humidity;BMP_temperature;BMP_pressure;BME280_temperature;BME280_humidity;BME280_pressure;Samples;Min_cycle;Max_cycle;Signal;HPM_P1;HPM_P2
2021/08/01 00:01:36;;;;;;;16.52;11.32;;;24.60;68.90;;;;;;4993516;28;20026;-72
2021/08/01 00:04:02;;;;;;;15.43;11.70;;;24.60;69.00;;;;;;4993585;28;20030;-73
2021/08/01 00:06:28;;;;;;;17.75;11.82;;;24.60;68.90;;;;;;4993609;28;20034;-74
2021/08/01 00:08:54;;;;;;;14.75;10.88;;;24.60;68.80;;;;;;4993989;28;20705;-74
2021/08/01 00:11:19;;;;;;;16.15;10.85;;;24.60;68.90;;;;;;4992528;28;20030;-74
2021/08/01 00:13:45;;;;;;;16.27;11.48;;;24.60;68.80;;;;;;4993278;28;20424;-74
2021/08/01 00:16:11;;;;;;;13.25;10.60;;;24.60;68.80;;;;;;4993384;28;20030;-75
2021/08/01 00:18:37;;;;;;;12.95;10.05;;;24.60;68.60;;;;;;4993547;28;20030;-72
2021/08/01 00:21:04;;;;;;;14.63;10.70;;;24.70;68.40;;;;;;4993242;28;20030;-73
2021/08/01 00:23:30;;;;;;;16.20;10.52;;;24.70;68.30;;;;;;4993186;28;20036;-73
2021/08/01 00:25:59;;;;;;;13.30;10.40;;;24.70;68.10;;;;;;4993126;28;20030;-72
2021/08/01 00:28:25;;;;;;;14.38;10.70;;;24.70;68.10;;;;;;4993405;28;20485;-73
2021/08/01 00:30:51;;;;;;;11.38;10.20;;;24.70;68.00;;;;;;4993107;28;20033;-74
2021/08/01 00:33:17;;;;;;;15.98;11.00;;;24.70;68.10;;;;;;4992711;28;20057;-73
2021/08/01 00:35:42;;;;;;;15.05;11.35;;;24.70;68.00;;;;;;4993017;28;20129;-73
2021/08/01 00:38:08;;;;;;;14.82;11.35;;;24.70;68.10;;;;;;4992960;28;20439;-73
2021/08/01 00:40:35;;;;;;;14.73;11.68;;;24.60;68.20;;;;;;4992965;28;20027;-73
2021/08/01 00:43:01;;;;;;;14.57;11.43;;;24.60;68.50;;;;;;4992821;28;20018;-73
2021/08/01 00:45:27;;;;;;;19.50;11.50;;;24.50;68.60;;;;;;4992752;28;20483;-72
2021/08/01 00:47:52;;;;;;;15.88;12.02;;;24.50;68.70;;;;;;4975405;28;20034;-73
2021/08/01 00:50:18;;;;;;;13.27;11.15;;;24.40;68.60;;;;;;4992707;28;20026;-72
2021/08/01 00:52:49;;;;;;;17.08;11.02;;;24.40;68.70;;;;;;4992567;28;20026;-72
2021/08/01 00:55:15;;;;;;;18.08;11.48;;;24.30;68.90;;;;;;4992720;28;20101;-74
2021/08/01 00:57:40;;;;;;;12.82;10.45;;;24.30;68.90;;;;;;4992725;28;20101;-74
2021/08/01 01:03:09;;;;;;;14.38;11.02;;;24.20;69.10;;;;;;4956064;28;20035;-74
2021/08/01 01:05:41;;;;;;;14.25;10.70;;;24.30;69.10;;;;;;4992521;28;20037;-73
2021/08/01 01:08:35;;;;;;;13.32;10.32;;;24.20;69.10;;;;;;4992689;28;20469;-74
2021/08/01 01:11:04;;;;;;;13.10;10.60;;;24.20;68.90;;;;;;4985848;28;20389;-74
2021/08/01 01:13:35;;;;;;;16.50;10.35;;;24.20;68.90;;;;;;4992375;28;20027;-74
2021/08/01 01:16:01;;;;;;;16.17;11.25;;;24.20;68.60;;;;;;4992608;28;20026;-73
2021/08/01 01:18:31;;;;;;;19.08;11.07;;;24.20;68.60;;;;;;4992947;28;20034;-72
2021/08/01 01:21:20;;;;;;;24.13;10.75;;;24.20;68.60;;;;;;4992541;28;20027;-72
2021/08/01 01:23:58;;;;;;;13.05;9.63;;;24.20;68.50;;;;;;4986914;28;20038;-72
2021/08/01 01:26:38;;;;;;;18.80;9.85;;;24.20;68.40;;;;;;4996406;28;20034;-72
2021/08/01 01:29:18;;;;;;;14.77;10.43;;;24.10;68.30;;;;;;4996483;28;20028;-72
2021/08/01 01:31:47;;;;;;;10.98;9.05;;;24.10;68.00;;;;;;4996225;28;20042;-72
2021/08/01 01:34:16;;;;;;;16.65;10.23;;;24.10;67.80;;;;;;4996235;28;20065;-72
2021/08/01 01:36:43;;;;;;;14.32;9.82;;;24.20;67.90;;;;;;4996178;28;20018;-72
2021/08/01 01:39:10;;;;;;;11.48;10.27;;;24.10;67.90;;;;;;4996259;28;20030;-72
2021/08/01 01:41:40;;;;;;;16.70;10.15;;;24.10;67.90;;;;;;4996357;28;20022;-72
2021/08/01 01:44:08;;;;;;;15.23;9.98;;;24.10;67.90;;;;;;4996538;28;20800;-72
2021/08/01 01:46:35;;;;;;;11.93;9.57;;;24.00;67.80;;;;;;4996167;28;20041;-72
2021/08/01 01:49:03;;;;;;;9.88;8.80;;;24.00;67.80;;;;;;4996026;28;20026;-71
2021/08/01 01:51:31;;;;;;;14.45;9.48;;;24.00;67.70;;;;;;4996089;28;20057;-72
2021/08/01 01:53:57;;;;;;;11.48;9.45;;;24.00;67.60;;;;;;4995835;28;20026;-70
2021/08/01 01:56:23;;;;;;;11.93;8.90;;;24.00;67.40;;;;;;4996049;28;20125;-72
2021/08/01 01:58:49;;;;;;;13.65;9.70;;;24.00;67.20;;;;;;4995934;28;20051;-73
2021/08/01 02:01:17;;;;;;;10.90;8.95;;;24.10;67.00;;;;;;4996003;28;20019;-73
2021/08/01 02:03:43;;;;;;;14.00;8.93;;;24.10;66.70;;;;;;4978606;28;20504;-74
2021/08/01 02:06:09;;;;;;;11.23;8.90;;;24.10;66.60;;;;;;4995826;28;20065;-74
2021/08/01 02:08:57;;;;;;;12.02;9.10;;;24.10;66.40;;;;;;4978169;28;20026;-74
2021/08/01 02:11:27;;;;;;;13.10;9.25;;;24.10;66.20;;;;;;4995481;28;20088;-73
2021/08/01 02:14:02;;;;;;;12.02;8.98;;;24.10;66.20;;;;;;4978059;28;20035;-73
2021/08/01 02:16:33;;;;;;;13.82;9.02;;;24.10;66.20;;;;;;4995460;28;20420;-74
2021/08/01 02:19:04;;;;;;;9.85;8.82;;;24.20;65.90;;;;;;4995807;28;20037;-74
2021/08/01 02:21:30;;;;;;;10.27;8.63;;;24.20;65.90;;;;;;4995366;28;20026;-74
2021/08/01 02:23:58;;;;;;;9.38;8.40;;;24.20;65.90;;;;;;4995392;28;20029;-74
2021/08/01 02:26:24;;;;;;;12.57;9.40;;;24.20;65.80;;;;;;4995269;28;20531;-74
2021/08/01 02:28:52;;;;;;;11.77;9.70;;;24.20;65.60;;;;;;4995291;28;20057;-75
2021/08/01 02:31:20;;;;;;;12.57;9.93;;;24.30;65.50;;;;;;4995103;28;20043;-74
2021/08/01 02:33:47;;;;;;;10.20;8.93;;;24.30;65.30;;;;;;4995151;28;20531;-74
2021/08/01 02:36:14;;;;;;;11.55;8.60;;;24.30;65.10;;;;;;4994433;28;20026;-74
2021/08/01 02:38:41;;;;;;;10.25;9.23;;;24.40;65.00;;;;;;4995018;28;20026;-74
2021/08/01 02:41:34;;;;;;;10.18;9.07;;;24.40;65.00;;;;;;4994993;28;20086;-74
2021/08/01 02:44:13;;;;;;;11.93;10.07;;;24.50;65.10;;;;;;4977515;28;20058;-75
2021/08/01 02:46:41;;;;;;;18.13;9.75;;;24.60;64.90;;;;;;4995069;28;20061;-74
2021/08/01 02:49:11;;;;;;;12.10;10.70;;;24.80;64.80;;;;;;4994914;28;20037;-75
2021/08/01 02:51:37;;;;;;;11.40;9.73;;;25.10;64.40;;;;;;4994976;28;20030;-74
2021/08/01 02:54:04;;;;;;;14.05;9.57;;;25.40;63.90;;;;;;4994876;28;20080;-74
2021/08/01 02:56:34;;;;;;;10.85;9.07;;;25.80;63.20;;;;;;4994717;28;20057;-74
2021/08/01 02:59:01;;;;;;;10.50;9.35;;;26.20;62.40;;;;;;4994895;28;20140;-75
2021/08/01 03:01:29;;;;;;;15.40;9.82;;;26.70;61.70;;;;;;4995019;28;20022;-74
2021/08/01 03:03:55;;;;;;;11.63;8.50;;;27.10;60.90;;;;;;4994867;28;20042;-74
2021/08/01 03:06:21;;;;;;;14.50;8.85;;;27.60;60.00;;;;;;4994930;28;20073;-74
2021/08/01 03:08:47;;;;;;;12.20;9.20;;;28.10;59.00;;;;;;4994722;28;20034;-72
2021/08/01 03:11:21;;;;;;;15.52;9.48;;;28.60;58.10;;;;;;4994477;28;20152;-73
2021/08/01 03:13:46;;;;;;;14.45;10.07;;;29.10;56.80;;;;;;4994408;28;20369;-73
2021/08/01 03:16:12;;;;;;;14.00;9.57;;;29.40;56.20;;;;;;4994495;28;20034;-72
2021/08/01 03:18:38;;;;;;;12.45;9.23;;;29.80;55.50;;;;;;4976985;28;20073;-72
2021/08/01 03:21:03;;;;;;;11.13;9.20;;;29.90;54.60;;;;;;4994480;28;20489;-74
2021/08/01 03:23:29;;;;;;;10.75;8.93;;;29.90;54.20;;;;;;4994460;28;20161;-75
2021/08/01 03:25:55;;;;;;;16.85;9.30;;;29.90;54.20;;;;;;4994084;28;20069;-75
2021/08/01 03:28:20;;;;;;;23.88;8.65;;;29.90;54.20;;;;;;4994188;28;20057;-74
2021/08/01 03:30:46;;;;;;;14.80;10.23;;;30.10;54.10;;;;;;4976518;28;20030;-74
2021/08/01 03:33:12;;;;;;;23.48;8.80;;;30.70;53.70;;;;;;4993903;28;20558;-74
2021/08/01 03:35:38;;;;;;;13.57;8.98;;;31.30;53.50;;;;;;4994069;28;20413;-74
2021/08/01 03:38:03;;;;;;;23.02;9.82;;;31.80;52.10;;;;;;4976662;28;20026;-74
2021/08/01 03:40:29;;;;;;;16.98;9.20;;;32.30;51.30;;;;;;4993843;28;20515;-72
2021/08/01 03:42:55;;;;;;;11.07;8.45;;;32.70;50.60;;;;;;4993950;28;20054;-72
2021/08/01 03:45:20;;;;;;;16.90;9.32;;;32.90;49.90;;;;;;4976365;28;20473;-71
2021/08/01 03:47:46;;;;;;;11.00;9.20;;;33.00;49.40;;;;;;4994010;28;20023;-74
2021/08/01 03:50:12;;;;;;;10.73;8.95;;;33.00;49.10;;;;;;4994046;28;20105;-74
2021/08/01 03:52:37;;;;;;;12.75;8.50;;;32.90;49.00;;;;;;4976956;28;20469;-75
2021/08/01 03:55:04;;;;;;;13.07;8.88;;;32.80;48.90;;;;;;4994127;28;20037;-73
2021/08/01 03:57:29;;;;;;;12.68;9.00;;;32.50;49.10;;;;;;4993701;28;20511;-73
2021/08/01 03:59:55;;;;;;;12.95;9.52;;;32.50;49.40;;;;;;4993646;28;20038;-74
2021/08/01 04:02:21;;;;;;;10.55;9.10;;;32.40;49.60;;;;;;4993872;28;20022;-75
2021/08/01 04:04:46;;;;;;;14.23;9.13;;;32.50;49.80;;;;;;4993641;28;20048;-75
2021/08/01 04:07:12;;;;;;;12.45;10.10;;;33.10;49.90;;;;;;4976149;28;20030;-74
2021/08/01 04:09:37;;;;;;;12.20;9.00;;;33.90;49.60;;;;;;4993704;28;20545;-75
2021/08/01 04:12:04;;;;;;;11.55;9.45;;;34.60;49.10;;;;;;4993188;28;20365;-74
2021/08/01 04:14:31;;;;;;;11.30;9.75;;;35.50;48.30;;;;;;4976050;28;20069;-74
2021/08/01 04:16:58;;;;;;;10.02;9.13;;;36.40;47.40;;;;;;4993789;28;20441;-75
2021/08/01 04:19:24;;;;;;;11.05;9.68;;;37.10;46.20;;;;;;4993107;28;20039;-74
2021/08/01 04:21:50;;;;;;;14.35;10.07;;;37.20;45.40;;;;;;4993226;28;20257;-74
2021/08/01 04:24:16;;;;;;;14.32;10.30;;;36.90;45.30;;;;;;4993102;28;20026;-75
2021/08/01 04:26:42;;;;;;;10.98;9.88;;;36.60;45.50;;;;;;4993186;28;20045;-75
2021/08/01 04:29:07;;;;;;;11.80;9.35;;;36.50;45.60;;;;;;4993361;28;20108;-74
2021/08/01 04:31:33;;;;;;;11.77;9.85;;;36.60;45.70;;;;;;4992894;28;20050;-74
2021/08/01 04:33:59;;;;;;;13.73;9.75;;;37.00;45.50;;;;;;4992971;28;20030;-75
2021/08/01 04:36:25;;;;;;;12.48;9.95;;;37.00;45.10;;;;;;4993102;28;20022;-74
2021/08/01 04:38:51;;;;;;;12.73;9.93;;;36.60;44.90;;;;;;4992788;28;20026;-73
2021/08/01 04:41:16;;;;;;;16.90;10.30;;;36.00;45.30;;;;;;4992772;28;20019;-72
2021/08/01 04:43:42;;;;;;;11.38;10.18;;;35.50;46.00;;;;;;4975485;28;20026;-73
2021/08/01 04:46:08;;;;;;;14.95;9.82;;;35.20;46.90;;;;;;4992301;28;20030;-73
2021/08/01 04:48:34;;;;;;;12.30;10.00;;;35.80;47.30;;;;;;4992850;28;20027;-74
2021/08/01 04:50:59;;;;;;;14.77;10.45;;;36.80;46.80;;;;;;4992910;28;20547;-74
2021/08/01 04:53:25;;;;;;;13.40;9.88;;;37.70;45.70;;;;;;4992530;28;20030;-73
2021/08/01 04:55:51;;;;;;;13.68;10.30;;;38.70;44.90;;;;;;4992583;28;20034;-73
2021/08/01 04:58:17;;;;;;;12.00;10.73;;;39.70;44.00;;;;;;4991895;28;20022;-74
2021/08/01 05:00:42;;;;;;;17.38;10.48;;;40.40;43.20;;;;;;4992459;28;20420;-73
2021/08/01 05:03:08;;;;;;;13.40;10.63;;;41.30;42.50;;;;;;4975198;28;20038;-74
2021/08/01 05:05:40;;;;;;;16.60;10.32;;;41.80;41.70;;;;;;4992636;28;20030;-73
2021/08/01 05:08:06;;;;;;;13.15;10.20;;;42.10;41.10;;;;;;4992527;28;20034;-74
2021/08/01 05:10:32;;;;;;;14.13;10.45;;;42.50;40.50;;;;;;4974512;28;20058;-74
2021/08/01 05:12:58;;;;;;;15.65;10.23;;;42.90;40.10;;;;;;4992152;28;20113;-74
2021/08/01 05:15:24;;;;;;;13.93;9.75;;;43.00;39.80;;;;;;4992036;28;20022;-74
2021/08/01 05:17:50;;;;;;;12.60;10.25;;;43.00;39.70;;;;;;4991224;28;20027;-73
2021/08/01 05:20:16;;;;;;;11.63;10.32;;;42.60;39.60;;;;;;4988547;28;20373;-73
2021/08/01 05:22:42;;;;;;;11.15;9.35;;;42.30;40.00;;;;;;4990869;28;20376;-73
2021/08/01 05:25:08;;;;;;;12.63;9.85;;;42.50;40.00;;;;;;4973927;28;20030;-73
2021/08/01 05:27:34;;;;;;;15.77;10.30;;;43.00;39.70;;;;;;4990782;28;20037;-73
2021/08/01 05:30:00;;;;;;;11.32;10.20;;;43.60;39.40;;;;;;4990980;28;20484;-73
2021/08/01 05:32:26;;;;;;;17.67;9.77;;;44.10;38.80;;;;;;4990859;28;20054;-74
2021/08/01 05:34:52;;;;;;;12.10;9.82;;;44.60;38.30;;;;;;4990742;28;20019;-74
2021/08/01 05:37:17;;;;;;;15.73;9.35;;;45.10;38.20;;;;;;4990886;28;20030;-74
2021/08/01 05:39:43;;;;;;;11.25;10.07;;;45.50;37.60;;;;;;4990761;28;20019;-74
2021/08/01 05:42:09;;;;;;;14.73;9.82;;;45.50;37.00;;;;;;4990836;28;20066;-72
2021/08/01 05:44:34;;;;;;;11.13;9.65;;;45.20;37.30;;;;;;4990453;28;20023;-74
2021/08/01 05:47:01;;;;;;;13.75;9.73;;;45.40;37.50;;;;;;4990752;28;20022;-73
2021/08/01 05:49:26;;;;;;;11.40;10.02;;;45.70;37.30;;;;;;4990705;28;20170;-73
2021/08/01 05:51:52;;;;;;;12.45;10.00;;;46.00;37.20;;;;;;4990698;28;20411;-74
2021/08/01 05:54:18;;;;;;;11.50;10.20;;;46.40;37.00;;;;;;4990445;28;20037;-74
2021/08/01 05:56:43;;;;;;;14.07;10.35;;;46.80;36.80;;;;;;4990614;28;20390;-71
2021/08/01 05:59:09;;;;;;;13.90;10.30;;;47.20;36.60;;;;;;4990427;28;20022;-75
2021/08/01 06:01:35;;;;;;;12.70;10.68;;;47.40;36.30;;;;;;4991008;28;20495;-72
2021/08/01 06:04:00;;;;;;;11.50;10.30;;;47.40;36.30;;;;;;4991791;28;20134;-73
2021/08/01 06:06:26;;;;;;;12.23;9.98;;;47.90;36.10;;;;;;4991748;28;20030;-72
2021/08/01 06:08:53;;;;;;;11.13;9.57;;;48.10;35.90;;;;;;4991696;28;20105;-73
2021/08/01 06:11:20;;;;;;;15.25;10.30;;;48.50;35.70;;;;;;4994611;28;20023;-72
2021/08/01 06:13:46;;;;;;;12.75;10.23;;;48.60;35.20;;;;;;4995356;28;20026;-73
2021/08/01 06:16:14;;;;;;;13.73;10.20;;;48.20;35.10;;;;;;4995275;28;20085;-72
2021/08/01 06:18:41;;;;;;;11.93;9.60;;;47.40;35.20;;;;;;4995435;28;20051;-73
2021/08/01 06:21:18;;;;;;;10.73;9.63;;;46.20;35.70;;;;;;4995365;28;20033;-73
2021/08/01 06:23:47;;;;;;;17.52;10.02;;;44.80;36.40;;;;;;4995178;28;20033;-71
2021/08/01 06:26:16;;;;;;;16.67;10.05;;;43.60;37.50;;;;;;4995396;28;20066;-73
2021/08/01 06:28:42;;;;;;;13.25;10.10;;;42.80;38.60;;;;;;4995096;28;20029;-74
2021/08/01 06:31:09;;;;;;;14.50;10.45;;;42.40;39.20;;;;;;4993950;28;20432;-72
2021/08/01 06:33:36;;;;;;;13.93;10.20;;;41.60;39.80;;;;;;4993999;28;20065;-72
2021/08/01 06:36:10;;;;;;;14.77;11.05;;;40.80;40.60;;;;;;4995107;28;20022;-73
2021/08/01 06:38:37;;;;;;;14.68;9.88;;;40.00;41.60;;;;;;4994921;28;20096;-71
2021/08/01 06:41:03;;;;;;;11.43;10.10;;;39.40;42.30;;;;;;4993575;28;20468;-72
2021/08/01 06:43:30;;;;;;;11.73;10.15;;;38.60;43.80;;;;;;4990885;28;20101;-71
2021/08/01 06:45:56;;;;;;;19.35;10.90;;;38.00;43.90;;;;;;4993778;28;20022;-73
2021/08/01 06:48:22;;;;;;;14.43;10.50;;;37.70;44.60;;;;;;4993795;28;20033;-73
2021/08/01 06:50:49;;;;;;;14.93;9.77;;;37.50;45.10;;;;;;4993810;28;20374;-73
2021/08/01 06:53:15;;;;;;;13.93;9.60;;;37.80;45.70;;;;;;4993422;28;20105;-73
2021/08/01 06:55:41;;;;;;;16.13;10.00;;;38.60;45.20;;;;;;4993636;28;20022;-73
2021/08/01 06:58:07;;;;;;;12.13;9.65;;;39.30;44.60;;;;;;4976372;28;20025;-73
2021/08/01 07:00:32;;;;;;;13.93;9.43;;;40.20;43.70;;;;;;4993377;28;20022;-72
2021/08/01 07:03:04;;;;;;;14.32;9.85;;;40.60;42.50;;;;;;4993666;28;20051;-74
2021/08/01 07:05:31;;;;;;;17.65;9.70;;;41.00;42.10;;;;;;4976162;28;20026;-74
2021/08/01 07:08:04;;;;;;;17.92;9.20;;;41.70;41.50;;;;;;4993406;28;20026;-75
2021/08/01 07:10:30;;;;;;;13.10;8.75;;;42.30;40.40;;;;;;4990475;28;20033;-73
2021/08/01 07:13:00;;;;;;;14.25;9.35;;;42.70;39.80;;;;;;4993230;28;20022;-76
2021/08/01 07:15:26;;;;;;;14.63;9.70;;;42.60;39.20;;;;;;4993556;28;20027;-74
2021/08/01 07:17:56;;;;;;;11.02;8.48;;;42.20;39.30;;;;;;4992944;28;20053;-73
2021/08/01 07:20:23;;;;;;;11.32;9.02;;;42.20;39.70;;;;;;4975181;28;20058;-75
2021/08/01 07:22:48;;;;;;;12.95;8.57;;;42.40;39.80;;;;;;4993277;28;20033;-75
2021/08/01 07:25:14;;;;;;;11.05;7.90;;;42.80;39.30;;;;;;4993018;28;20026;-75
2021/08/01 07:27:40;;;;;;;14.90;8.70;;;43.00;39.00;;;;;;4993002;28;20026;-74
2021/08/01 07:30:08;;;;;;;10.27;8.40;;;42.90;38.70;;;;;;4975968;28;20101;-75
2021/08/01 07:32:34;;;;;;;9.77;8.77;;;42.80;39.00;;;;;;4992760;28;20049;-76
2021/08/01 07:35:00;;;;;;;10.98;8.57;;;42.80;39.20;;;;;;4993327;28;20026;-76
2021/08/01 07:37:26;;;;;;;10.07;8.23;;;42.60;38.70;;;;;;4993348;28;20101;-78
2021/08/01 07:39:51;;;;;;;9.73;7.90;;;42.40;38.80;;;;;;4993421;28;20042;-77
2021/08/01 07:42:17;;;;;;;16.20;8.82;;;42.50;38.60;;;;;;4976079;28;20041;-77
2021/08/01 07:44:50;;;;;;;10.15;7.55;;;42.50;38.60;;;;;;4993180;28;20534;-78
2021/08/01 07:47:17;;;;;;;11.80;7.97;;;42.60;39.10;;;;;;4990917;28;20050;-78
2021/08/01 07:49:45;;;;;;;20.73;8.35;;;42.80;38.30;;;;;;4992898;28;20546;-78
2021/08/01 07:52:11;;;;;;;11.60;7.85;;;43.10;38.30;;;;;;5004881;28;20029;-76
2021/08/01 07:54:41;;;;;;;9.82;7.80;;;43.20;38.10;;;;;;4992216;28;20022;-77
2021/08/01 08:00:28;;;;;;;12.98;8.05;;;42.90;38.00;;;;;;4993496;28;20130;-76
2021/08/01 08:02:54;;;;;;;10.52;7.65;;;42.90;37.90;;;;;;4993348;28;20026;-79
2021/08/01 08:05:20;;;;;;;19.35;8.00;;;42.70;38.10;;;;;;4993603;28;20484;-81
2021/08/01 08:07:45;;;;;;;8.52;7.72;;;42.50;38.00;;;;;;4993972;28;20042;-79
2021/08/01 08:10:12;;;;;;;8.48;7.60;;;42.40;38.10;;;;;;4994022;28;20455;-80
2021/08/01 08:12:38;;;;;;;12.60;7.85;;;42.20;38.40;;;;;;4993565;28;20026;-80
2021/08/01 08:15:06;;;;;;;15.00;8.05;;;41.90;38.40;;;;;;4976428;28;20042;-79
2021/08/01 08:17:33;;;;;;;12.50;7.30;;;41.60;38.70;;;;;;4993254;28;20026;-80
2021/08/01 08:20:00;;;;;;;13.38;7.10;;;41.50;38.30;;;;;;4993279;28;20034;-79
2021/08/01 08:22:26;;;;;;;15.52;7.55;;;41.40;38.40;;;;;;4992961;28;20034;-75
2021/08/01 08:24:51;;;;;;;14.77;8.07;;;41.20;38.90;;;;;;4993094;28;20023;-74
2021/08/01 08:27:17;;;;;;;14.85;8.18;;;41.10;38.40;;;;;;4992962;28;20034;-74
2021/08/01 08:29:43;;;;;;;12.48;7.75;;;40.90;38.60;;;;;;4992583;28;20018;-74
2021/08/01 08:32:08;;;;;;;10.80;7.47;;;40.90;38.90;;;;;;4992005;28;20042;-71
2021/08/01 08:34:37;;;;;;;9.05;7.95;;;40.80;39.60;;;;;;4992311;28;20022;-75
2021/08/01 08:37:03;;;;;;;14.35;7.68;;;40.70;39.10;;;;;;4992531;28;20026;-71
2021/08/01 08:39:29;;;;;;;9.35;7.07;;;40.50;39.10;;;;;;4992103;28;20036;-74
2021/08/01 08:42:00;;;;;;;13.63;7.88;;;40.50;39.50;;;;;;4992111;28;20023;-74
2021/08/01 08:44:28;;;;;;;9.90;7.78;;;40.40;39.50;;;;;;4992557;28;20031;-72
2021/08/01 08:46:57;;;;;;;11.98;7.80;;;40.20;39.50;;;;;;4992864;28;20018;-73
2021/08/01 08:49:23;;;;;;;16.20;7.45;;;40.10;39.50;;;;;;4975655;28;20028;-72
2021/08/01 08:51:53;;;;;;;10.38;7.50;;;39.90;39.80;;;;;;4992408;28;20410;-71
2021/08/01 08:54:36;;;;;;;16.60;7.95;;;39.80;40.00;;;;;;4975656;28;20026;-73
2021/08/01 08:57:12;;;;;;;8.88;6.60;;;39.70;40.10;;;;;;4992753;28;20033;-71
2021/08/01 08:59:38;;;;;;;14.55;7.63;;;39.60;40.20;;;;;;4992017;28;20028;-72
2021/08/01 09:02:04;;;;;;;7.93;6.78;;;39.50;40.20;;;;;;4992322;28;20026;-72
2021/08/01 09:04:30;;;;;;;13.07;7.30;;;39.40;40.30;;;;;;4974719;28;20370;-73
2021/08/01 09:06:56;;;;;;;10.77;7.57;;;39.40;40.00;;;;;;4992110;28;20038;-73
2021/08/01 09:09:21;;;;;;;12.25;6.82;;;39.30;39.80;;;;;;4991955;28;20027;-72
2021/08/01 09:11:49;;;;;;;13.15;7.38;;;39.20;39.70;;;;;;4992092;28;20033;-72
2021/08/01 09:14:20;;;;;;;10.82;6.97;;;39.10;39.90;;;;;;4992167;28;20034;-72
2021/08/01 09:16:49;;;;;;;10.25;7.10;;;39.10;40.40;;;;;;4991787;28;20426;-72
2021/08/01 09:19:35;;;;;;;10.73;7.93;;;39.00;39.90;;;;;;4991929;28;20114;-71
2021/08/01 09:22:11;;;;;;;14.35;7.63;;;38.90;40.20;;;;;;4991735;28;20031;-72
2021/08/01 09:24:37;;;;;;;11.30;7.63;;;38.80;40.00;;;;;;4991781;28;20116;-72
2021/08/01 09:27:05;;;;;;;9.93;8.02;;;38.80;40.40;;;;;;4991848;28;20022;-73
2021/08/01 09:29:32;;;;;;;18.52;8.23;;;38.80;40.10;;;;;;4991804;28;20053;-71
2021/08/01 09:32:00;;;;;;;15.75;7.70;;;38.70;40.20;;;;;;4974131;28;20173;-71
2021/08/01 09:34:27;;;;;;;10.15;7.40;;;38.50;40.20;;;;;;4991758;28;20018;-71
2021/08/01 09:37:03;;;;;;;15.55;7.35;;;38.50;40.10;;;;;;4991837;28;20026;-72
2021/08/01 09:39:42;;;;;;;10.45;7.40;;;38.50;40.00;;;;;;4991918;28;20023;-72
2021/08/01 09:42:11;;;;;;;9.93;6.63;;;38.50;40.10;;;;;;4992121;28;20090;-73
2021/08/01 09:44:39;;;;;;;9.88;6.90;;;38.40;39.80;;;;;;4977170;28;20062;-72
2021/08/01 09:47:06;;;;;;;12.48;7.03;;;38.30;39.80;;;;;;4995871;28;20018;-72
2021/08/01 09:49:32;;;;;;;8.63;7.18;;;38.20;40.00;;;;;;4978154;28;20018;-72
2021/08/01 09:52:03;;;;;;;16.13;7.70;;;38.10;40.50;;;;;;4996061;28;20173;-72
2021/08/01 09:54:46;;;;;;;9.50;7.00;;;38.10;40.30;;;;;;4978249;28;20129;-73
2021/08/01 09:57:21;;;;;;;8.68;7.47;;;38.00;40.10;;;;;;4995591;28;20109;-72
2021/08/01 09:59:48;;;;;;;15.90;7.25;;;38.10;40.40;;;;;;4995505;28;20473;-73
2021/08/01 10:02:13;;;;;;;10.25;7.00;;;38.00;40.40;;;;;;4995973;28;20026;-72
2021/08/01 10:04:42;;;;;;;12.77;7.32;;;37.90;40.60;;;;;;4995688;28;20142;-72
2021/08/01 10:07:11;;;;;;;10.80;7.88;;;37.80;41.10;;;;;;4995533;28;20101;-71
2021/08/01 10:09:38;;;;;;;11.65;7.03;;;37.80;41.30;;;;;;4995659;28;20030;-72
2021/08/01 10:12:05;;;;;;;12.52;7.55;;;37.60;40.90;;;;;;4995738;28;20080;-73
2021/08/01 10:14:31;;;;;;;12.35;7.45;;;37.40;40.70;;;;;;4995272;28;20054;-72
2021/08/01 10:17:01;;;;;;;12.73;6.47;;;37.30;40.80;;;;;;4995948;28;20437;-72
2021/08/01 10:19:27;;;;;;;11.23;6.75;;;37.20;40.30;;;;;;4963080;28;20373;-73
2021/08/01 10:21:59;;;;;;;11.57;6.72;;;37.10;40.40;;;;;;4995437;28;20030;-74
2021/08/01 10:24:37;;;;;;;9.68;6.50;;;37.10;40.40;;;;;;4995009;28;20029;-72
2021/08/01 10:27:06;;;;;;;6.88;6.03;;;37.10;40.50;;;;;;4977394;28;20073;-73
2021/08/01 10:29:50;;;;;;;10.90;7.10;;;36.90;40.40;;;;;;4995148;28;20358;-71
2021/08/01 10:32:22;;;;;;;10.05;6.85;;;36.80;40.80;;;;;;4995109;28;20050;-74
2021/08/01 10:34:56;;;;;;;8.35;6.75;;;36.70;40.90;;;;;;4977830;28;20026;-72
2021/08/01 10:37:40;;;;;;;9.23;7.22;;;36.60;41.10;;;;;;4994823;28;20022;-73
2021/08/01 10:40:07;;;;;;;7.88;7.15;;;36.60;41.50;;;;;;4977301;28;20030;-73
2021/08/01 10:42:37;;;;;;;13.43;7.53;;;36.70;42.00;;;;;;4994479;28;20437;-72
2021/08/01 10:45:05;;;;;;;13.13;7.40;;;36.60;42.00;;;;;;4994709;28;20030;-73
2021/08/01 10:47:32;;;;;;;8.90;7.40;;;36.60;42.40;;;;;;4994573;28;20030;-72
2021/08/01 10:49:59;;;;;;;11.25;7.75;;;36.50;42.50;;;;;;4977156;28;20072;-72
2021/08/01 10:52:30;;;;;;;9.57;7.00;;;36.50;42.90;;;;;;4995156;28;20022;-72
2021/08/01 10:54:57;;;;;;;11.65;7.35;;;36.50;43.10;;;;;;4994446;28;20022;-72
2021/08/01 10:57:27;;;;;;;12.63;7.93;;;36.50;43.30;;;;;;4994052;28;20033;-72
2021/08/01 10:59:56;;;;;;;11.80;7.97;;;36.40;43.60;;;;;;4994891;28;20022;-72
2021/08/01 11:02:27;;;;;;;12.88;7.68;;;36.40;43.80;;;;;;4994519;28;20027;-72
2021/08/01 11:04:53;;;;;;;10.35;8.00;;;36.40;43.90;;;;;;4994428;28;20019;-71
2021/08/01 11:07:28;;;;;;;11.65;7.80;;;36.30;43.90;;;;;;4994187;28;20365;-72
2021/08/01 11:10:13;;;;;;;9.65;7.70;;;36.20;43.80;;;;;;4994361;28;20414;-75
2021/08/01 11:12:41;;;;;;;13.70;7.35;;;36.10;44.20;;;;;;4994087;28;20022;-72
2021/08/01 11:15:11;;;;;;;16.35;7.30;;;36.00;43.30;;;;;;4993850;28;20019;-72
2021/08/01 11:17:46;;;;;;;11.35;7.30;;;36.00;43.40;;;;;;4994009;28;20039;-71
2021/08/01 11:20:23;;;;;;;13.20;7.57;;;35.90;43.60;;;;;;4994188;28;20031;-73
2021/08/01 11:22:55;;;;;;;9.60;7.43;;;35.80;43.70;;;;;;4976261;28;20029;-73
2021/08/01 11:25:34;;;;;;;10.88;7.63;;;35.80;43.90;;;;;;4978079;28;20535;-74
2021/08/01 11:28:09;;;;;;;15.13;8.02;;;35.70;43.90;;;;;;4994184;28;20018;-72
2021/08/01 11:30:53;;;;;;;10.30;7.07;;;35.70;44.10;;;;;;4993687;28;20030;-75
2021/08/01 11:33:42;;;;;;;17.63;7.78;;;35.70;44.10;;;;;;4994215;28;20085;-74
2021/08/01 11:36:17;;;;;;;19.08;12.30;;;35.60;44.10;;;;;;4993936;28;20105;-72
2021/08/01 11:38:51;;;;;;;14.00;8.02;;;35.50;44.10;;;;;;4993698;28;20049;-71
2021/08/01 11:41:35;;;;;;;9.48;8.45;;;35.50;44.40;;;;;;4993662;28;20100;-72
2021/08/01 11:44:11;;;;;;;14.23;8.68;;;35.50;44.90;;;;;;4993494;28;20081;-73
2021/08/01 11:46:58;;;;;;;9.00;7.97;;;35.40;44.80;;;;;;4993435;28;20072;-72
2021/08/01 11:49:37;;;;;;;14.13;8.38;;;35.30;44.80;;;;;;4993630;28;20061;-77
2021/08/01 11:52:05;;;;;;;11.52;7.55;;;35.30;44.80;;;;;;4994309;28;20018;-80
2021/08/01 11:54:36;;;;;;;9.77;7.80;;;35.30;45.00;;;;;;4994463;28;20675;-77
2021/08/01 11:57:04;;;;;;;10.65;8.05;;;35.30;45.30;;;;;;4993945;28;20026;-76
2021/08/01 11:59:30;;;;;;;15.20;7.07;;;35.30;45.40;;;;;;4976069;28;20381;-77
2021/08/01 12:01:57;;;;;;;10.43;7.28;;;35.30;44.60;;;;;;4976114;28;20172;-78
2021/08/01 12:04:23;;;;;;;8.77;7.20;;;35.20;44.40;;;;;;4976183;28;20026;-76
2021/08/01 12:06:54;;;;;;;12.15;7.78;;;35.10;44.20;;;;;;4994065;28;20026;-77
2021/08/01 12:09:29;;;;;;;9.13;6.75;;;35.10;44.20;;;;;;4993629;28;20014;-76
2021/08/01 12:11:56;;;;;;;12.38;7.60;;;35.10;44.20;;;;;;4993591;28;20044;-78
2021/08/01 12:14:24;;;;;;;11.77;7.20;;;35.00;43.90;;;;;;4975998;28;20030;-79
2021/08/01 12:17:04;;;;;;;9.77;7.20;;;35.00;44.20;;;;;;4993594;28;20031;-78
2021/08/01 12:19:37;;;;;;;9.53;6.87;;;34.90;44.30;;;;;;4993642;28;20034;-76
2021/08/01 12:22:10;;;;;;;10.30;6.55;;;34.90;44.40;;;;;;4993293;28;20103;-78
2021/08/01 12:24:41;;;;;;;9.02;7.00;;;34.90;44.60;;;;;;4993245;28;20072;-77
2021/08/01 12:27:13;;;;;;;9.93;6.45;;;34.80;44.50;;;;;;4993037;28;20373;-77
2021/08/01 12:29:47;;;;;;;7.93;6.30;;;34.80;44.40;;;;;;4992835;28;20022;-77
2021/08/01 12:32:32;;;;;;;9.77;7.07;;;34.80;43.90;;;;;;4992630;28;20050;-78
2021/08/01 12:35:09;;;;;;;13.68;7.15;;;34.70;43.70;;;;;;4992597;28;20030;-77
2021/08/01 12:37:48;;;;;;;9.18;7.05;;;34.60;43.80;;;;;;4992783;28;20493;-77
2021/08/01 12:40:27;;;;;;;12.80;7.15;;;34.60;44.20;;;;;;4992769;28;20044;-76
2021/08/01 12:42:59;;;;;;;8.70;7.35;;;34.60;44.60;;;;;;4992634;28;20073;-78
2021/08/01 12:45:33;;;;;;;12.80;7.78;;;34.60;44.90;;;;;;4992838;28;20029;-79
2021/08/01 12:48:00;;;;;;;13.02;8.10;;;34.50;45.30;;;;;;4975078;28;20026;-77
2021/08/01 12:50:26;;;;;;;11.85;7.40;;;34.60;45.50;;;;;;4993040;28;20059;-78